Time;durP1;ratioP1;P1;durP2;ratioP2;P2;SDS_P1;SDS_P2;PMS_P1;PMS_P2;Temp;Humidity;BMP_temperature;BMP_pressure;BME280_temperature;BME280_humidity;BME280_pressure;Samples;Min_cycle;Max_cycle;Signal;HPM_P1;HPM_P2
2022/06/07 00:02:30;;;;;;;2.17;1.23;;;;;;;16.66;78.97;99521.56;5053945;28;20372;-67
2022/06/07 00:05:00;;;;;;;0.70;0.70;;;;;;;16.71;78.95;99519.72;5054035;28;20037;-67
2022/06/07 00:07:29;;;;;;;1.45;0.95;;;;;;;16.69;79.08;99511.19;5053831;28;20071;-67
2022/06/07 00:09:58;;;;;;;0.80;0.80;;;;;;;16.70;78.66;99518.84;5036082;28;20041;-67
2022/06/07 00:12:30;;;;;;;0.43;0.43;;;;;;;16.77;78.93;99519.56;5053596;28;20037;-67
2022/06/07 00:15:02;;;;;;;0.70;0.70;;;;;;;16.94;78.92;99516.50;5053587;28;20498;-67
2022/06/07 00:17:35;;;;;;;0.50;0.50;;;;;;;16.92;78.92;99489.88;5053560;28;20049;-67
2022/06/07 00:20:09;;;;;;;0.60;0.60;;;;;;;17.18;78.25;99516.59;5053537;28;20080;-68
2022/06/07 00:22:38;;;;;;;0.68;0.65;;;;;;;17.27;77.87;99520.63;5053645;28;20048;-67
2022/06/07 00:25:09;;;;;;;1.85;1.23;;;;;;;17.28;77.18;99523.16;5053780;28;20075;-67
2022/06/07 00:27:41;;;;;;;0.70;0.70;;;;;;;17.31;76.86;99517.91;5053769;28;20525;-67
2022/06/07 00:30:14;;;;;;;0.60;0.60;;;;;;;17.29;76.44;99519.69;5035719;28;20135;-67
2022/06/07 00:32:46;;;;;;;0.68;0.68;;;;;;;17.28;76.29;99515.41;5035644;28;20057;-67
2022/06/07 00:35:15;;;;;;;0.73;0.73;;;;;;;17.29;75.93;99514.53;5035586;28;20037;-67
2022/06/07 00:37:44;;;;;;;;;;;;;;;17.30;75.65;99511.06;5054362;28;20076;-67
2022/06/07 00:40:14;;;;;;;0.90;0.90;;;;;;;17.32;75.60;99504.09;5057477;28;19931;-67
2022/06/07 00:42:46;;;;;;;0.60;0.60;;;;;;;17.27;75.31;99506.00;5039399;28;20055;-67
2022/06/07 00:45:25;;;;;;;0.90;0.90;;;;;;;17.16;75.21;99500.31;5057383;28;20079;-67
2022/06/07 00:47:55;;;;;;;0.60;0.60;;;;;;;17.11;75.26;99499.59;5057260;28;20048;-67
2022/06/07 00:50:37;;;;;;;0.73;0.73;;;;;;;17.05;75.50;99496.38;5057577;28;20505;-67
2022/06/07 00:53:22;;;;;;;0.80;0.75;;;;;;;16.98;75.88;99493.13;5057538;28;20049;-66
2022/06/07 00:55:55;;;;;;;0.80;0.80;;;;;;;16.88;75.90;99476.25;5039757;28;20075;-66
2022/06/07 00:58:26;;;;;;;0.63;0.63;;;;;;;17.02;76.34;99487.00;5057806;28;20085;-67
2022/06/07 01:00:56;;;;;;;0.50;0.50;;;;;;;17.04;76.16;99485.22;5039339;28;20045;-67
2022/06/07 01:03:27;;;;;;;0.70;0.70;;;;;;;17.10;76.09;99482.47;5056886;28;20529;-67
2022/06/07 01:10:43;;;;;;;0.50;0.50;;;;;;;17.08;75.65;99486.81;5057286;28;20052;-67
2022/06/07 01:11:25;;;;;;;0.90;0.80;;;;;;;17.06;75.96;99475.69;5039144;28;20064;-67
2022/06/07 01:13:54;;;;;;;0.67;0.63;;;;;;;17.06;75.68;99480.84;5039225;28;20510;-67
2022/06/07 01:16:30;;;;;;;1.02;0.93;;;;;;;17.06;75.45;99480.84;5039002;28;20052;-67
2022/06/07 01:19:01;;;;;;;1.95;1.35;;;;;;;17.04;75.34;99482.63;5056594;28;20071;-67
2022/06/07 01:21:40;;;;;;;0.60;0.60;;;;;;;17.03;75.29;99480.97;5038928;28;20053;-67
2022/06/07 01:24:11;;;;;;;0.68;0.68;;;;;;;17.01;74.89;99482.72;5038818;28;20045;-66
2022/06/07 01:26:45;;;;;;;0.90;0.90;;;;;;;17.00;74.93;99475.88;5038866;28;20053;-67
2022/06/07 01:29:23;;;;;;;0.68;0.68;;;;;;;16.97;74.48;99470.81;5038805;28;20060;-66
2022/06/07 01:31:55;;;;;;;0.80;0.80;;;;;;;16.97;74.57;99477.69;5038818;28;20057;-66
2022/06/07 01:34:28;;;;;;;0.82;0.82;;;;;;;16.90;74.50;99464.16;5056654;28;20045;-66
2022/06/07 01:37:01;;;;;;;;;;;;;;;16.90;74.34;99469.31;5056767;28;20041;-66
2022/06/07 01:42:12;;;;;;;0.60;0.60;;;;;;;16.85;74.35;99467.75;5056901;28;20055;-66
2022/06/07 01:44:43;;;;;;;1.05;0.95;;;;;;;16.84;74.60;99469.50;5056480;28;20047;-66
2022/06/07 01:47:14;;;;;;;0.73;0.73;;;;;;;16.87;74.46;99464.25;5039030;28;20494;-66
2022/06/07 01:49:55;;;;;;;0.70;0.70;;;;;;;16.79;74.14;99458.47;5038507;28;20402;-67
2022/06/07 01:52:31;;;;;;;0.60;0.60;;;;;;;16.89;74.11;99467.63;5056170;28;20072;-66
2022/06/07 01:55:07;;;;;;;11.30;0.70;;;;;;;16.89;74.64;99472.78;5022093;28;20053;-67
2022/06/07 01:57:45;;;;;;;;;;;;;;;16.87;74.47;99471.97;5056494;28;20099;-66
2022/06/07 02:00:25;;;;;;;0.70;0.70;;;;;;;16.81;74.10;99469.59;5056323;28;20350;-66
2022/06/07 02:03:03;;;;;;;1.42;1.25;;;;;;;16.79;74.15;99461.06;5056034;28;20053;-66
2022/06/07 02:05:57;;;;;;;24.02;1.30;;;;;;;16.74;74.23;99463.78;5055732;28;20128;-67
2022/06/07 02:08:32;;;;;;;0.32;0.32;;;;;;;16.57;74.17;99460.84;5038570;28;20505;-66
2022/06/07 02:11:06;;;;;;;0.68;0.68;;;;;;;16.50;74.52;99458.44;5056426;28;20132;-66
2022/06/07 02:13:37;;;;;;;0.57;0.57;;;;;;;16.51;75.01;99458.41;5055779;28;20048;-67
2022/06/07 02:16:07;;;;;;;1.05;0.93;;;;;;;16.50;75.17;99453.28;5037852;28;20136;-67
2022/06/07 02:18:36;;;;;;;0.70;0.70;;;;;;;16.49;75.00;99456.72;5037956;28;20099;-66
2022/06/07 02:21:22;;;;;;;0.98;0.82;;;;;;;16.48;75.29;99447.34;5037904;28;20049;-67
2022/06/07 02:23:53;;;;;;;0.73;0.70;;;;;;;16.48;75.48;99445.59;5038002;28;20589;-66
2022/06/07 02:26:26;;;;;;;0.50;0.50;;;;;;;16.39;75.24;99451.00;5037869;28;20041;-66
2022/06/07 02:28:58;;;;;;;0.50;0.50;;;;;;;16.26;75.38;99448.81;5055777;28;20182;-66
2022/06/07 02:31:31;;;;;;;0.60;0.60;;;;;;;16.14;75.57;99449.16;5038229;28;20131;-67
2022/06/07 02:34:01;;;;;;;0.52;0.52;;;;;;;16.02;75.74;99440.88;5055388;28;20051;-67
2022/06/07 02:36:31;;;;;;;0.70;0.70;;;;;;;15.94;76.27;99445.38;5037801;28;20126;-66
2022/06/07 02:39:03;;;;;;;0.75;0.75;;;;;;;15.87;76.56;99437.84;5055325;28;20076;-67
2022/06/07 02:41:34;;;;;;;0.60;0.60;;;;;;;15.74;76.84;99445.03;5037815;28;20110;-66
2022/06/07 02:44:03;;;;;;;1.17;0.90;;;;;;;15.63;76.93;99441.03;5055494;28;20456;-67
2022/06/07 02:46:35;;;;;;;2.35;0.85;;;;;;;15.55;77.32;99438.66;5055008;28;20045;-66
2022/06/07 02:49:06;;;;;;;0.88;0.80;;;;;;;15.46;77.58;99423.44;5037263;28;20091;-66
2022/06/07 02:51:37;;;;;;;1.25;1.15;;;;;;;15.40;77.77;99436.44;5037539;28;20075;-67
2022/06/07 02:54:08;;;;;;;0.82;0.82;;;;;;;15.32;77.83;99435.75;5037212;28;20565;-66
2022/06/07 02:56:38;;;;;;;0.70;0.70;;;;;;;15.32;78.86;99435.75;5036970;28;20057;-66
2022/06/07 02:59:08;;;;;;;0.80;0.75;;;;;;;15.34;78.84;99436.56;5054870;28;20103;-66
2022/06/07 03:01:37;;;;;;;0.73;0.73;;;;;;;15.32;78.65;99430.63;5036357;28;20064;-66
2022/06/07 03:04:06;;;;;;;;;;;;;;;15.28;79.27;99434.16;5037626;28;20041;-67
2022/06/07 03:06:38;;;;;;;1.00;1.00;;;;;;;15.32;79.24;99435.75;5036856;28;19921;-67
2022/06/07 03:09:09;;;;;;;0.60;0.60;;;;;;;15.30;79.16;99437.53;5054508;28;20091;-67
2022/06/07 03:11:38;;;;;;;0.73;0.73;;;;;;;15.35;79.96;99430.56;5036893;28;20057;-67
2022/06/07 03:14:10;;;;;;;1.80;1.00;;;;;;;15.51;79.82;99426.75;5037162;28;20060;-66
2022/06/07 03:16:40;;;;;;;0.70;0.70;;;;;;;15.75;79.31;99430.44;5036957;28;20398;-67
2022/06/07 03:19:10;;;;;;;0.60;0.60;;;;;;;15.92;78.96;99444.56;5037053;28;20048;-67
2022/06/07 03:21:41;;;;;;;0.80;0.80;;;;;;;16.06;78.89;99437.31;5020622;28;20495;-67
2022/06/07 03:24:12;;;;;;;;;;;;;;;16.16;78.76;99442.22;5054783;28;20053;-67
2022/06/07 03:26:41;;;;;;;0.55;0.55;;;;;;;16.22;78.67;99437.75;5036560;28;19920;-67
2022/06/07 03:29:25;;;;;;;0.40;0.40;;;;;;;16.29;78.24;99443.59;5054226;28;20053;-66
2022/06/07 03:31:55;;;;;;;0.50;0.50;;;;;;;16.38;78.14;99444.19;5036773;28;20048;-67
2022/06/07 03:34:27;;;;;;;0.40;0.40;;;;;;;16.50;77.62;99433.53;5036457;28;20053;-67
2022/06/07 03:36:57;;;;;;;1.30;1.20;;;;;;;16.54;77.27;99439.44;5036637;28;20048;-67
2022/06/07 03:39:31;;;;;;;1.08;1.02;;;;;;;16.57;77.20;99436.78;5036125;28;20045;-67
2022/06/07 03:42:03;;;;;;;0.60;0.60;;;;;;;16.54;77.25;99437.72;5036335;28;20079;-67
2022/06/07 03:44:36;;;;;;;0.52;0.52;;;;;;;16.56;77.06;99432.50;5036763;28;20588;-67
2022/06/07 03:47:13;;;;;;;0.60;0.60;;;;;;;16.61;76.82;99430.66;5036201;28;20053;-68
2022/06/07 03:49:46;;;;;;;0.70;0.70;;;;;;;16.64;76.56;99430.56;5053932;28;20052;-67
2022/06/07 03:52:18;;;;;;;1.63;1.45;;;;;;;16.66;76.38;99428.78;5053918;28;20048;-67
2022/06/07 03:54:49;;;;;;;1.20;0.77;;;;;;;16.69;76.30;99428.72;5036211;28;20071;-67
2022/06/07 03:57:21;;;;;;;0.70;0.70;;;;;;;16.74;76.36;99426.84;5036569;28;20056;-67
2022/06/07 03:59:54;;;;;;;0.73;0.73;;;;;;;16.77;76.24;99425.00;5035935;28;20044;-67
2022/06/07 04:02:23;;;;;;;1.17;1.08;;;;;;;16.82;75.90;99426.63;5036371;28;20066;-68
2022/06/07 04:04:52;;;;;;;0.70;0.70;;;;;;;16.77;75.93;99416.44;5035888;28;20041;-67
2022/06/07 04:10:07;;;;;;;0.70;0.70;;;;;;;16.74;76.27;99390.75;5035769;28;20056;-68
2022/06/07 04:12:48;;;;;;;0.52;0.52;;;;;;;16.98;76.14;99428.69;5035784;28;20486;-68
2022/06/07 04:15:21;;;;;;;0.57;0.57;;;;;;;17.02;75.93;99419.94;5035810;28;20048;-68
2022/06/07 04:17:54;;;;;;;1.38;1.27;;;;;;;17.09;75.82;99428.34;5036382;28;20103;-67
2022/06/07 04:20:36;;;;;;;0.70;0.70;;;;;;;17.07;76.40;99404.34;5035699;28;20049;-68
2022/06/07 04:23:05;;;;;;;0.65;0.65;;;;;;;17.25;75.82;99414.91;5036066;28;20080;-68
2022/06/07 04:25:44;;;;;;;0.63;0.63;;;;;;;17.36;75.87;99420.56;5036140;28;20045;-68
2022/06/07 04:28:18;;;;;;;0.70;0.70;;;;;;;17.51;75.54;99420.97;5035640;28;20488;-68
2022/06/07 04:30:51;;;;;;;0.70;0.70;;;;;;;17.69;75.61;99426.38;5035550;28;20053;-67
2022/06/07 04:33:26;;;;;;;0.63;0.63;;;;;;;17.84;75.13;99420.72;5035642;28;20044;-66
2022/06/07 04:36:02;;;;;;;3.40;0.80;;;;;;;17.97;74.94;99426.31;5035607;28;20049;-66
2022/06/07 04:38:31;;;;;;;0.50;0.50;;;;;;;18.04;74.89;99425.19;5053334;28;20557;-68
2022/06/07 04:41:02;;;;;;;1.10;0.82;;;;;;;18.14;74.81;99428.31;5053546;28;20064;-68
2022/06/07 04:43:31;;;;;;;0.60;0.60;;;;;;;18.26;74.52;99418.34;5035478;28;20132;-67
2022/06/07 04:46:04;;;;;;;0.60;0.60;;;;;;;18.28;74.45;99402.81;5035458;28;20041;-68
2022/06/07 04:48:38;;;;;;;1.10;1.00;;;;;;;18.50;74.01;99412.31;5035490;28;20491;-68
2022/06/07 04:51:18;;;;;;;1.10;0.93;;;;;;;18.65;73.72;99411.75;5035376;28;20394;-69
2022/06/07 04:53:59;;;;;;;1.23;1.10;;;;;;;18.72;73.42;99397.69;5053431;28;20067;-67
2022/06/07 04:56:36;;;;;;;2.38;1.45;;;;;;;18.78;73.29;99395.78;5035579;28;20140;-66
2022/06/07 04:59:08;;;;;;;0.80;0.80;;;;;;;18.84;72.95;99391.19;5035714;28;20064;-68
2022/06/07 05:01:43;;;;;;;1.10;1.00;;;;;;;19.05;73.20;99389.53;5035329;28;20037;-68
2022/06/07 05:04:20;;;;;;;2.10;1.85;;;;;;;18.99;72.57;99363.91;5035646;28;20398;-67
2022/06/07 05:06:54;;;;;;;0.70;0.70;;;;;;;19.29;72.65;99393.72;5035582;28;20099;-68
2022/06/07 05:09:32;;;;;;;0.60;0.60;;;;;;;19.47;72.20;99402.50;5035131;28;20136;-68
2022/06/07 05:12:25;;;;;;;0.80;0.80;;;;;;;19.66;71.97;99396.50;5035607;28;20099;-68
2022/06/07 05:14:58;;;;;;;0.70;0.70;;;;;;;19.79;71.55;99400.25;5035556;28;20446;-68
2022/06/07 05:17:33;;;;;;;0.60;0.60;;;;;;;19.97;71.30;99391.69;5052931;28;20044;-68
2022/06/07 05:20:04;;;;;;;1.17;1.08;;;;;;;20.08;70.80;99385.19;5052859;28;20045;-68
2022/06/07 05:22:34;;;;;;;1.20;1.13;;;;;;;20.29;70.44;99389.47;5035507;28;20049;-68
2022/06/07 05:25:11;;;;;;;1.20;1.02;;;;;;;20.36;69.74;99385.69;5037877;28;20052;-68
2022/06/07 05:27:47;;;;;;;0.70;0.70;;;;;;;20.45;69.56;99386.09;5039126;28;20091;-68
2022/06/07 05:30:21;;;;;;;0.60;0.60;;;;;;;20.58;69.38;99391.59;5038453;28;20056;-68
2022/06/07 05:32:54;;;;;;;0.82;0.82;;;;;;;20.57;69.13;99385.53;5038948;28;20139;-68
2022/06/07 05:35:34;;;;;;;1.75;0.77;;;;;;;20.79;68.99;99398.38;5056825;28;20501;-68
2022/06/07 05:38:14;;;;;;;2.33;1.10;;;;;;;20.95;68.74;99401.91;5022305;28;20056;-68
2022/06/07 05:40:48;;;;;;;0.95;0.80;;;;;;;21.04;68.25;99398.88;5038792;28;20044;-68
2022/06/07 05:43:21;;;;;;;1.15;1.05;;;;;;;21.15;68.05;99399.25;5056160;28;20049;-69
2022/06/07 05:45:56;;;;;;;1.30;1.05;;;;;;;21.27;67.42;99398.66;5038458;28;20091;-68
2022/06/07 05:48:36;;;;;;;1.08;1.02;;;;;;;21.35;67.27;99396.50;5056196;28;20055;-68
2022/06/07 05:51:10;;;;;;;0.75;0.60;;;;;;;21.47;67.23;99386.44;5038529;28;20106;-68
2022/06/07 05:53:40;;;;;;;0.70;0.70;;;;;;;21.65;67.04;99388.13;5038798;28;20103;-68
2022/06/07 05:56:12;;;;;;;1.13;1.02;;;;;;;21.86;66.97;99392.25;5038080;28;20052;-68
2022/06/07 05:58:43;;;;;;;0.60;0.60;;;;;;;22.07;66.84;99391.16;5038325;28;20119;-68
2022/06/07 06:01:15;;;;;;;1.67;1.10;;;;;;;22.27;66.33;99390.94;5038768;28;20512;-69
2022/06/07 06:03:48;;;;;;;1.25;0.55;;;;;;;22.25;65.79;99377.19;5038086;28;20072;-68
2022/06/07 06:06:19;;;;;;;0.60;0.60;;;;;;;22.32;65.24;99388.94;5038330;28;20128;-68
2022/06/07 06:11:35;;;;;;;1.85;0.95;;;;;;;22.54;65.04;99394.69;5038424;28;20111;-68
2022/06/07 06:14:14;;;;;;;1.08;0.98;;;;;;;22.63;64.75;99389.00;5037965;28;20053;-67
2022/06/07 06:16:48;;;;;;;0.45;0.45;;;;;;;22.74;64.15;99387.59;5037958;28;20056;-68
2022/06/07 06:19:28;;;;;;;0.52;0.52;;;;;;;22.89;63.91;99384.16;5037736;28;20067;-68
2022/06/07 06:21:57;;;;;;;;;;;;;;;22.98;63.58;99386.22;5038219;28;20041;-68
2022/06/07 06:24:29;;;;;;;0.85;0.40;;;;;;;23.00;63.23;99384.38;5037704;28;19920;-67
2022/06/07 06:26:59;;;;;;;0.65;0.65;;;;;;;23.04;62.91;99385.88;5037679;28;20392;-67
2022/06/07 06:29:37;;;;;;;0.77;0.60;;;;;;;23.10;62.90;99375.97;5037862;28;20068;-67
2022/06/07 06:32:08;;;;;;;0.77;0.77;;;;;;;23.20;62.66;99381.50;5055674;28;20513;-68
2022/06/07 06:34:39;;;;;;;0.77;0.75;;;;;;;23.36;62.55;99382.31;5038287;28;20041;-67
2022/06/07 06:37:11;;;;;;;0.57;0.57;;;;;;;23.43;62.42;99375.81;5036708;28;20131;-69
2022/06/07 06:39:43;;;;;;;0.70;0.70;;;;;;;23.56;62.24;99384.63;5037829;28;20048;-68
2022/06/07 06:42:13;;;;;;;1.73;0.98;;;;;;;23.61;61.72;99374.75;5037347;28;20076;-69
2022/06/07 06:45:09;;;;;;;0.50;0.50;;;;;;;23.70;61.47;99371.63;5037637;28;20088;-68
2022/06/07 06:47:44;;;;;;;0.80;0.80;;;;;;;23.83;61.18;99367.34;5037885;28;20526;-66
2022/06/07 06:50:14;;;;;;;0.60;0.60;;;;;;;23.95;61.01;99366.59;5020893;28;20357;-67
2022/06/07 06:52:44;;;;;;;0.50;0.50;;;;;;;24.00;60.50;99367.16;5037813;28;20053;-68
2022/06/07 06:55:14;;;;;;;1.48;1.05;;;;;;;24.06;60.67;99372.94;5037204;28;20092;-68
2022/06/07 06:57:43;;;;;;;0.73;0.60;;;;;;;24.15;61.06;99351.53;5055090;28;20037;-68
2022/06/07 07:00:16;;;;;;;0.50;0.50;;;;;;;24.17;60.80;99354.88;5035863;28;20045;-68
2022/06/07 07:02:46;;;;;;;0.50;0.50;;;;;;;24.25;60.44;99360.47;5036890;28;20045;-68
2022/06/07 07:05:18;;;;;;;0.70;0.70;;;;;;;24.37;60.25;99357.13;5035907;28;20045;-69
2022/06/07 07:07:55;;;;;;;0.77;0.77;;;;;;;24.40;59.80;99356.94;5017395;28;20041;-68
2022/06/07 07:10:27;;;;;;;0.68;0.68;;;;;;;24.52;59.83;99356.16;5017320;28;20077;-69
2022/06/07 07:12:57;;;;;;;0.60;0.60;;;;;;;24.67;59.25;99357.78;5034222;28;20053;-69
2022/06/07 07:15:35;;;;;;;1.17;0.55;;;;;;;24.75;58.70;99352.94;5047684;28;20048;-68
2022/06/07 07:18:10;;;;;;;0.95;0.90;;;;;;;24.90;57.83;99352.00;5021614;28;20491;-68
2022/06/07 07:20:44;;;;;;;0.98;0.75;;;;;;;24.99;57.94;99351.38;5018832;28;20052;-68
2022/06/07 07:23:14;;;;;;;1.13;0.60;;;;;;;24.86;58.31;99340.03;5034389;28;20048;-69
2022/06/07 07:25:43;;;;;;;0.93;0.93;;;;;;;25.15;57.91;99357.28;5016704;28;20044;-69
2022/06/07 07:28:19;;;;;;;0.70;0.70;;;;;;;25.18;56.64;99346.63;5034343;28;20119;-68
2022/06/07 07:30:59;;;;;;;0.80;0.70;;;;;;;25.29;55.15;99338.91;5016674;28;20095;-69
2022/06/07 07:33:39;;;;;;;0.70;0.70;;;;;;;25.61;55.07;99338.56;5016614;28;20080;-69
2022/06/07 07:36:09;;;;;;;0.50;0.50;;;;;;;25.71;54.96;99345.69;5029115;28;20099;-67
2022/06/07 07:38:40;;;;;;;0.90;0.85;;;;;;;25.52;54.81;99318.28;5035076;28;20045;-69
2022/06/07 07:41:18;;;;;;;0.60;0.60;;;;;;;25.53;54.18;99331.25;5046361;28;20068;-69
2022/06/07 07:43:50;;;;;;;0.90;0.82;;;;;;;25.51;54.27;99316.59;5032584;28;20056;-69
2022/06/07 07:46:26;;;;;;;0.40;0.40;;;;;;;25.63;54.28;99310.53;5017666;28;20050;-70
2022/06/07 07:48:56;;;;;;;0.82;0.70;;;;;;;25.60;54.12;99316.00;5036154;28;20052;-68
2022/06/07 07:51:27;;;;;;;1.08;0.80;;;;;;;25.56;54.62;99309.28;5045696;28;20068;-67
2022/06/07 07:53:59;;;;;;;0.70;0.70;;;;;;;25.66;54.45;99310.34;5034264;28;20495;-68
2022/06/07 07:56:29;;;;;;;0.60;0.60;;;;;;;25.76;54.02;99316.63;5016220;28;20069;-69
2022/06/07 07:58:59;;;;;;;0.52;0.52;;;;;;;25.83;53.98;99315.25;5041388;28;20045;-69
2022/06/07 08:01:31;;;;;;;0.60;0.60;;;;;;;25.69;54.53;99297.06;5053386;28;20503;-66
2022/06/07 08:04:01;;;;;;;0.55;0.55;;;;;;;25.86;54.35;99318.50;5036374;28;20080;-68
2022/06/07 08:06:46;;;;;;;0.57;0.57;;;;;;;25.98;53.38;99311.59;5035723;28;20045;-69
2022/06/07 08:09:16;;;;;;;0.63;0.63;;;;;;;26.00;52.34;99296.63;5053685;28;20045;-68
2022/06/07 08:11:45;;;;;;;0.60;0.60;;;;;;;26.21;50.98;99308.22;5051282;28;20095;-69
2022/06/07 08:14:15;;;;;;;;;;;;;;;26.29;49.81;99311.13;5042805;28;20096;-69
2022/06/07 08:16:46;;;;;;;0.60;0.60;;;;;;;26.30;49.44;99291.84;5037754;28;19932;-69
2022/06/07 08:19:18;;;;;;;0.43;0.43;;;;;;;26.44;49.67;99315.25;5045147;28;20044;-69
2022/06/07 08:21:47;;;;;;;0.40;0.40;;;;;;;26.67;49.68;99304.94;5046968;28;20057;-69
2022/06/07 08:24:17;;;;;;;;;;;;;;;26.84;49.24;99309.81;5045033;28;20048;-68
2022/06/07 08:26:48;;;;;;;0.98;0.73;;;;;;;26.90;47.89;99317.22;5052302;28;20019;-69
2022/06/07 08:29:18;;;;;;;0.57;0.57;;;;;;;26.98;47.54;99299.16;5053297;28;20053;-71
2022/06/07 08:31:49;;;;;;;0.60;0.60;;;;;;;27.14;46.63;99300.50;5053204;28;20041;-70
2022/06/07 08:39:37;;;;;;;0.60;0.60;;;;;;;27.51;48.08;99293.38;5053211;28;20099;-68
2022/06/07 08:42:30;;;;;;;0.80;0.80;;;;;;;27.77;47.94;99292.19;5052924;28;20402;-69
2022/06/07 08:45:02;;;;;;;0.52;0.52;;;;;;;28.02;46.63;99283.28;5053472;28;20210;-70
2022/06/07 08:47:39;;;;;;;1.67;1.40;;;;;;;28.13;44.81;99288.50;5053214;28;20136;-69
2022/06/07 08:50:18;;;;;;;0.55;0.55;;;;;;;28.02;44.32;99285.91;5053134;28;20048;-68
2022/06/07 08:52:49;;;;;;;0.50;0.50;;;;;;;28.07;45.41;99281.16;5053537;28;20128;-69
2022/06/07 08:55:21;;;;;;;10.75;0.95;;;;;;;28.41;43.95;99279.28;5052891;28;20127;-69
2022/06/07 08:58:27;;;;;;;0.45;0.45;;;;;;;28.70;43.14;99274.34;5053136;28;20049;-69
2022/06/07 09:00:59;;;;;;;0.63;0.57;;;;;;;28.78;42.21;99272.75;5056909;28;20039;-69
2022/06/07 09:03:42;;;;;;;0.85;0.85;;;;;;;28.72;42.01;99278.53;5039298;28;20483;-69
2022/06/07 09:06:20;;;;;;;0.45;0.45;;;;;;;28.72;42.07;99262.75;5039094;28;20136;-68
2022/06/07 09:08:51;;;;;;;0.57;0.57;;;;;;;28.85;42.36;99273.91;5057299;28;20391;-68
2022/06/07 09:14:05;;;;;;;0.50;0.50;;;;;;;28.61;41.59;99262.78;5056749;28;20049;-69
2022/06/07 09:16:43;;;;;;;0.50;0.50;;;;;;;28.80;41.50;99264.72;5056711;28;20131;-69
2022/06/07 09:19:20;;;;;;;0.50;0.50;;;;;;;28.91;41.92;99262.91;5056961;28;20056;-69
2022/06/07 09:21:50;;;;;;;0.40;0.40;;;;;;;29.11;42.19;99259.44;5056817;28;20045;-68
2022/06/07 09:24:29;;;;;;;0.50;0.50;;;;;;;29.18;43.21;99252.72;5057014;28;20462;-69
2022/06/07 09:27:18;;;;;;;1.05;0.95;;;;;;;29.15;42.86;99255.56;5056495;28;20045;-65
2022/06/07 09:29:53;;;;;;;1.02;0.93;;;;;;;28.89;43.52;99248.22;5055672;28;20045;-67
2022/06/07 09:32:24;;;;;;;0.43;0.43;;;;;;;28.88;44.13;99244.75;5060274;28;20072;-70
2022/06/07 09:34:59;;;;;;;0.50;0.50;;;;;;;28.89;43.78;99254.28;5067269;28;20049;-69
2022/06/07 09:37:32;;;;;;;0.50;0.50;;;;;;;28.71;43.89;99245.31;5045024;28;20483;-69
2022/06/07 09:40:17;;;;;;;0.70;0.70;;;;;;;28.68;43.42;99244.72;5065351;28;20375;-67
2022/06/07 09:42:53;;;;;;;0.52;0.52;;;;;;;28.68;44.61;99249.97;5064236;28;20057;-70
2022/06/07 09:45:29;;;;;;;0.60;0.50;;;;;;;28.77;44.99;99242.16;5056142;28;20053;-69
2022/06/07 09:48:18;;;;;;;0.38;0.38;;;;;;;28.93;44.54;99236.47;5056708;28;20490;-69
2022/06/07 09:50:55;;;;;;;0.73;0.73;;;;;;;28.79;43.35;99237.63;5061342;28;20052;-69
2022/06/07 09:53:25;;;;;;;1.10;0.77;;;;;;;28.80;43.62;99238.44;5057319;28;20044;-68
2022/06/07 09:56:08;;;;;;;1.02;0.98;;;;;;;28.69;43.14;99231.47;5076089;28;20493;-68
2022/06/07 09:58:48;;;;;;;0.80;0.60;;;;;;;28.79;43.89;99231.53;5076072;28;20048;-68
2022/06/07 10:01:26;;;;;;;0.50;0.50;;;;;;;28.84;44.24;99230.19;5075998;28;20052;-67
2022/06/07 10:04:04;;;;;;;0.50;0.50;;;;;;;28.75;44.55;99224.84;5075522;28;20162;-66
2022/06/07 10:06:41;;;;;;;0.50;0.50;;;;;;;28.73;44.52;99219.72;5075835;28;20569;-68
2022/06/07 10:09:31;;;;;;;0.88;0.80;;;;;;;28.87;45.07;99219.44;5075859;28;20058;-65
2022/06/07 10:12:12;;;;;;;0.43;0.43;;;;;;;28.99;44.41;99221.03;5058014;28;20136;-67
2022/06/07 10:14:52;;;;;;;0.40;0.40;;;;;;;28.98;43.85;99216.75;5075811;28;20071;-68
2022/06/07 10:17:42;;;;;;;1.27;1.00;;;;;;;28.85;43.36;99210.84;5075839;28;20139;-69
2022/06/07 10:20:22;;;;;;;0.55;0.55;;;;;;;28.70;44.28;99217.34;5058069;28;20071;-68
2022/06/07 10:23:22;;;;;;;0.75;0.75;;;;;;;28.54;45.14;99209.03;5057647;28;20509;-68
2022/06/07 10:26:04;;;;;;;0.40;0.40;;;;;;;28.77;45.68;99213.25;5067643;28;20487;-68
2022/06/07 10:28:40;;;;;;;0.85;0.85;;;;;;;28.87;44.87;99198.41;5075880;28;20056;-68
2022/06/07 10:31:16;;;;;;;0.52;0.52;;;;;;;29.06;44.46;99198.53;5075542;28;20056;-69
2022/06/07 10:33:53;;;;;;;0.50;0.50;;;;;;;29.36;45.01;99194.28;5075497;28;20064;-68
2022/06/07 10:36:42;;;;;;;0.50;0.50;;;;;;;29.43;45.10;99192.78;5075764;28;20159;-69
2022/06/07 10:39:31;;;;;;;0.60;0.60;;;;;;;29.41;44.24;99194.72;5075318;28;20059;-69
2022/06/07 10:42:07;;;;;;;;;;;;;;;29.45;43.88;99188.22;5075771;28;20107;-70
2022/06/07 10:44:43;;;;;;;0.50;0.50;;;;;;;29.47;43.77;99181.03;5075005;28;19927;-69
2022/06/07 10:47:15;;;;;;;0.47;0.47;;;;;;;29.57;43.22;99176.66;5075500;28;20052;-67
2022/06/07 10:49:51;;;;;;;0.70;0.70;;;;;;;29.57;42.46;99181.91;5075077;28;20519;-70
2022/06/07 10:52:31;;;;;;;0.90;0.90;;;;;;;29.45;41.45;99172.44;5075297;28;20123;-69
2022/06/07 10:55:13;;;;;;;0.40;0.40;;;;;;;29.40;41.75;99161.50;5074992;28;20486;-69
2022/06/07 10:57:53;;;;;;;0.80;0.73;;;;;;;29.46;42.45;99160.97;5074787;28;20113;-65
2022/06/07 11:00:35;;;;;;;0.50;0.50;;;;;;;29.51;43.37;99162.25;5075204;28;20048;-66
2022/06/07 11:03:27;;;;;;;0.88;0.80;;;;;;;29.57;42.98;99150.34;5075098;28;20390;-69
2022/06/07 11:11:51;;;;;;;0.60;0.60;;;;;;;29.39;40.79;99147.53;5074978;28;20044;-69
2022/06/07 11:14:34;;;;;;;2.35;0.70;;;;;;;29.40;41.11;99143.09;5074249;28;20044;-70
2022/06/07 11:17:13;;;;;;;0.85;0.80;;;;;;;29.50;40.91;99154.47;5075154;28;20048;-69
2022/06/07 11:19:42;;;;;;;0.80;0.80;;;;;;;29.59;41.14;99148.41;5074839;28;20044;-69
2022/06/07 11:22:17;;;;;;;0.85;0.73;;;;;;;29.70;41.27;99136.00;5074213;28;20071;-68
2022/06/07 11:24:59;;;;;;;1.10;0.70;;;;;;;29.79;41.68;99139.63;5074327;28;20131;-67
2022/06/07 11:27:31;;;;;;;0.60;0.60;;;;;;;29.87;41.70;99137.19;5074214;28;20490;-69
2022/06/07 11:30:22;;;;;;;0.60;0.60;;;;;;;30.10;41.52;99128.03;5074235;28;20040;-68
2022/06/07 11:32:55;;;;;;;0.50;0.50;;;;;;;30.30;40.57;99124.47;5074374;28;20047;-67
2022/06/07 11:35:45;;;;;;;0.63;0.63;;;;;;;30.43;40.29;99119.75;5074815;28;20041;-68
2022/06/07 11:38:25;;;;;;;0.50;0.50;;;;;;;30.54;39.67;99125.84;5074179;28;20051;-69
2022/06/07 11:41:36;;;;;;;0.50;0.50;;;;;;;30.44;39.38;99121.44;5073961;28;20051;-69
2022/06/07 11:43:56;;;;;;;0.68;0.68;;;;;;;30.45;39.61;99120.44;5073929;28;20076;-67
2022/06/07 11:46:37;;;;;;;1.23;1.02;;;;;;;30.42;39.29;99102.31;5074286;28;20044;-68
2022/06/07 11:49:34;;;;;;;0.52;0.52;;;;;;;30.48;38.22;99100.88;5074305;28;20049;-67
2022/06/07 11:52:24;;;;;;;0.90;0.80;;;;;;;30.64;38.51;99105.59;5073918;28;20131;-64
2022/06/07 11:54:59;;;;;;;0.70;0.70;;;;;;;30.50;38.21;99105.03;5071178;28;20090;-68
2022/06/07 11:58:04;;;;;;;4.97;1.75;;;;;;;30.60;38.49;99097.13;5074129;28;20040;-70
2022/06/07 12:00:47;;;;;;;2.72;0.77;;;;;;;30.60;37.86;99109.47;5073829;28;20102;-69
2022/06/07 12:03:30;;;;;;;0.40;0.40;;;;;;;30.36;37.59;99102.84;5073642;28;20051;-68
2022/06/07 12:06:17;;;;;;;0.70;0.70;;;;;;;30.22;37.76;99094.50;5073967;28;20544;-69
2022/06/07 12:09:01;;;;;;;0.68;0.68;;;;;;;30.31;38.28;99096.28;5073770;28;20056;-69
2022/06/07 12:11:55;;;;;;;0.80;0.80;;;;;;;30.28;38.37;99094.78;5074085;28;20372;-70
2022/06/07 12:14:38;;;;;;;0.50;0.50;;;;;;;30.24;38.20;99085.50;5073856;28;20044;-70
2022/06/07 12:17:24;;;;;;;0.70;0.70;;;;;;;30.26;38.31;99085.34;5055999;28;20558;-70
2022/06/07 12:19:54;;;;;;;0.68;0.68;;;;;;;30.33;38.38;99083.84;5073696;28;20110;-69
2022/06/07 12:22:25;;;;;;;0.60;0.60;;;;;;;30.15;38.61;99060.00;5073555;28;20040;-69
2022/06/07 12:25:00;;;;;;;0.63;0.50;;;;;;;30.17;38.16;99078.28;5073830;28;20048;-66
2022/06/07 12:27:32;;;;;;;1.45;1.20;;;;;;;30.05;38.17;99082.88;5055774;28;20126;-66
2022/06/07 12:30:19;;;;;;;0.63;0.63;;;;;;;30.07;38.44;99070.41;5073499;28;20076;-70
2022/06/07 12:32:54;;;;;;;0.50;0.50;;;;;;;30.18;37.54;99078.16;5055229;28;20494;-70
2022/06/07 12:35:29;;;;;;;0.50;0.50;;;;;;;30.15;37.03;99065.28;5055131;28;20074;-69
2022/06/07 12:38:00;;;;;;;1.08;0.98;;;;;;;30.44;37.12;99074.00;5073389;28;20044;-68
2022/06/07 12:40:36;;;;;;;0.60;0.60;;;;;;;30.73;37.26;99073.09;5073259;28;20505;-66